sensor_id;sensor_type;location;lat;lon;timestamp;noise_LAeq;noise_LA_min;noise_LA_max;noise_LA01;noise_LA95
45964;Laerm;31671;48.092;11.842;2023-07-13T00:02:05;29.11;27.90;32.11;;
45964;Laerm;31671;48.092;11.842;2023-07-13T00:04:31;29.14;27.70;35.04;;
45964;Laerm;31671;48.092;11.842;2023-07-13T00:06:57;29.14;27.77;32.07;;
45964;Laerm;31671;48.092;11.842;2023-07-13T00:09:22;29.28;27.85;44.33;;
45964;Laerm;31671;48.092;11.842;2023-07-13T00:11:52;29.15;27.65;35.73;;
45964;Laerm;31671;48.092;11.842;2023-07-13T00:14:18;29.03;27.74;31.25;;
45964;Laerm;31671;48.092;11.842;2023-07-13T00:16:43;29.06;27.32;37.78;;
45964;Laerm;31671;48.092;11.842;2023-07-13T00:19:10;29.10;27.85;33.71;;
45964;Laerm;31671;48.092;11.842;2023-07-13T00:21:37;29.07;27.45;30.41;;
45964;Laerm;31671;48.092;11.842;2023-07-13T00:24:02;29.03;27.68;35.29;;
45964;Laerm;31671;48.092;11.842;2023-07-13T00:26:28;29.66;27.54;51.81;;
45964;Laerm;31671;48.092;11.842;2023-07-13T00:28:54;29.08;27.59;31.67;;
45964;Laerm;31671;48.092;11.842;2023-07-13T00:31:20;29.03;27.61;30.98;;
45964;Laerm;31671;48.092;11.842;2023-07-13T00:33:46;29.36;27.44;47.74;;
45964;Laerm;31671;48.092;11.842;2023-07-13T00:36:13;29.29;27.62;40.27;;
45964;Laerm;31671;48.092;11.842;2023-07-13T00:38:39;29.05;27.81;34.38;;
45964;Laerm;31671;48.092;11.842;2023-07-13T00:41:05;29.07;27.62;30.87;;
45964;Laerm;31671;48.092;11.842;2023-07-13T00:43:31;29.29;27.60;36.91;;
45964;Laerm;31671;48.092;11.842;2023-07-13T00:48:25;29.20;27.80;37.23;;
45964;Laerm;31671;48.092;11.842;2023-07-13T00:50:52;31.17;27.80;62.94;;
45964;Laerm;31671;48.092;11.842;2023-07-13T00:53:19;29.22;27.68;46.67;;
45964;Laerm;31671;48.092;11.842;2023-07-13T00:55:46;29.16;27.81;31.62;;
45964;Laerm;31671;48.092;11.842;2023-07-13T00:58:12;29.21;27.80;46.99;;
45964;Laerm;31671;48.092;11.842;2023-07-13T01:00:38;29.19;27.81;31.65;;
45964;Laerm;31671;48.092;11.842;2023-07-13T01:05:51;29.10;27.55;30.53;;
45964;Laerm;31671;48.092;11.842;2023-07-13T01:08:17;29.37;27.69;32.00;;
45964;Laerm;31671;48.092;11.842;2023-07-13T01:10:56;29.04;27.73;35.27;;
45964;Laerm;31671;48.092;11.842;2023-07-13T01:13:22;29.10;27.54;31.17;;
45964;Laerm;31671;48.092;11.842;2023-07-13T01:15:49;29.03;27.78;30.27;;
45964;Laerm;31671;48.092;11.842;2023-07-13T01:18:17;29.18;27.52;32.98;;
45964;Laerm;31671;48.092;11.842;2023-07-13T01:20:50;29.00;27.75;30.85;;
45964;Laerm;31671;48.092;11.842;2023-07-13T01:23:15;28.99;27.64;37.61;;
45964;Laerm;31671;48.092;11.842;2023-07-13T01:25:41;29.03;27.53;31.43;;
45964;Laerm;31671;48.092;11.842;2023-07-13T01:28:07;29.64;27.76;32.87;;
45964;Laerm;31671;48.092;11.842;2023-07-13T01:30:33;28.96;27.46;30.93;;
45964;Laerm;31671;48.092;11.842;2023-07-13T01:33:00;28.94;27.70;34.03;;
45964;Laerm;31671;48.092;11.842;2023-07-13T01:35:26;29.00;27.70;30.66;;
45964;Laerm;31671;48.092;11.842;2023-07-13T01:37:52;28.97;27.57;30.46;;
45964;Laerm;31671;48.092;11.842;2023-07-13T01:40:17;28.99;27.53;30.59;;
45964;Laerm;31671;48.092;11.842;2023-07-13T01:42:43;29.09;27.74;31.02;;
45964;Laerm;31671;48.092;11.842;2023-07-13T01:45:09;28.92;27.52;30.41;;
45964;Laerm;31671;48.092;11.842;2023-07-13T01:47:34;29.09;27.43;31.85;;
45964;Laerm;31671;48.092;11.842;2023-07-13T01:50:00;28.95;27.64;30.98;;
45964;Laerm;31671;48.092;11.842;2023-07-13T01:52:26;28.94;27.66;31.18;;
45964;Laerm;31671;48.092;11.842;2023-07-13T01:54:51;28.90;27.57;30.08;;
45964;Laerm;31671;48.092;11.842;2023-07-13T01:57:17;28.92;27.58;30.23;;
45964;Laerm;31671;48.092;11.842;2023-07-13T01:59:43;28.91;27.56;30.21;;
45964;Laerm;31671;48.092;11.842;2023-07-13T02:02:08;28.96;27.64;30.64;;
45964;Laerm;31671;48.092;11.842;2023-07-13T02:04:34;29.09;27.78;31.38;;
45964;Laerm;31671;48.092;11.842;2023-07-13T02:07:00;29.04;27.55;30.33;;
45964;Laerm;31671;48.092;11.842;2023-07-13T02:09:25;29.04;27.46;30.91;;
45964;Laerm;31671;48.092;11.842;2023-07-13T02:11:51;29.05;27.54;30.71;;
45964;Laerm;31671;48.092;11.842;2023-07-13T02:14:17;28.98;27.69;30.25;;
45964;Laerm;31671;48.092;11.842;2023-07-13T02:16:42;29.00;27.70;31.07;;
45964;Laerm;31671;48.092;11.842;2023-07-13T02:19:08;29.06;27.43;30.53;;
45964;Laerm;31671;48.092;11.842;2023-07-13T02:21:34;28.99;27.55;30.28;;
45964;Laerm;31671;48.092;11.842;2023-07-13T02:24:00;29.08;27.60;31.32;;
45964;Laerm;31671;48.092;11.842;2023-07-13T02:26:26;28.98;27.67;30.35;;
45964;Laerm;31671;48.092;11.842;2023-07-13T02:28:53;28.95;27.52;30.19;;
45964;Laerm;31671;48.092;11.842;2023-07-13T02:31:19;29.02;27.68;32.50;;
45964;Laerm;31671;48.092;11.842;2023-07-13T02:33:45;28.97;27.68;30.46;;
45964;Laerm;31671;48.092;11.842;2023-07-13T02:36:11;28.94;27.55;30.20;;
45964;Laerm;31671;48.092;11.842;2023-07-13T02:38:37;29.19;27.73;33.96;;
45964;Laerm;31671;48.092;11.842;2023-07-13T02:41:03;29.04;27.39;30.93;;
45964;Laerm;31671;48.092;11.842;2023-07-13T02:43:29;29.05;27.40;31.15;;
45964;Laerm;31671;48.092;11.842;2023-07-13T02:45:55;28.88;27.47;30.15;;
45964;Laerm;31671;48.092;11.842;2023-07-13T02:48:20;28.97;27.72;37.05;;
45964;Laerm;31671;48.092;11.842;2023-07-13T02:50:46;29.01;27.69;32.66;;
45964;Laerm;31671;48.092;11.842;2023-07-13T02:53:12;28.98;27.45;32.26;;
45964;Laerm;31671;48.092;11.842;2023-07-13T02:55:37;29.34;27.79;32.90;;
45964;Laerm;31671;48.092;11.842;2023-07-13T02:58:03;29.16;27.89;33.84;;
45964;Laerm;31671;48.092;11.842;2023-07-13T03:00:29;29.09;27.71;32.31;;
45964;Laerm;31671;48.092;11.842;2023-07-13T03:02:54;29.06;27.65;33.07;;
45964;Laerm;31671;48.092;11.842;2023-07-13T03:05:21;30.45;27.70;37.38;;
45964;Laerm;31671;48.092;11.842;2023-07-13T03:07:47;30.14;28.18;37.53;;
45964;Laerm;31671;48.092;11.842;2023-07-13T03:10:12;29.32;28.01;32.84;;
45964;Laerm;31671;48.092;11.842;2023-07-13T03:12:45;29.80;28.14;36.96;;
45964;Laerm;31671;48.092;11.842;2023-07-13T03:15:18;29.78;28.01;46.00;;
45964;Laerm;31671;48.092;11.842;2023-07-13T03:17:45;29.92;28.29;39.34;;
45964;Laerm;31671;48.092;11.842;2023-07-13T03:20:10;31.00;28.80;42.12;;
45964;Laerm;31671;48.092;11.842;2023-07-13T03:22:36;31.91;29.63;52.23;;
45964;Laerm;31671;48.092;11.842;2023-07-13T03:25:02;30.39;28.36;39.28;;
45964;Laerm;31671;48.092;11.842;2023-07-13T03:27:28;41.22;27.95;74.65;;
45964;Laerm;31671;48.092;11.842;2023-07-13T03:29:54;48.57;28.11;80.61;;
45964;Laerm;31671;48.092;11.842;2023-07-13T03:32:20;33.66;28.78;51.25;;
45964;Laerm;31671;48.092;11.842;2023-07-13T03:34:46;34.63;29.02;62.62;;
45964;Laerm;31671;48.092;11.842;2023-07-13T03:37:12;44.30;29.24;80.28;;
45964;Laerm;31671;48.092;11.842;2023-07-13T03:39:38;32.13;28.72;56.94;;
45964;Laerm;31671;48.092;11.842;2023-07-13T03:42:03;46.20;28.36;82.26;;
45964;Laerm;31671;48.092;11.842;2023-07-13T03:44:29;30.14;28.47;35.86;;
45964;Laerm;31671;48.092;11.842;2023-07-13T03:46:56;54.37;29.10;74.72;;
45964;Laerm;31671;48.092;11.842;2023-07-13T03:49:22;42.21;28.99;64.59;;
45964;Laerm;31671;48.092;11.842;2023-07-13T03:51:48;39.19;28.43;61.41;;
45964;Laerm;31671;48.092;11.842;2023-07-13T03:54:14;32.14;29.19;55.84;;
45964;Laerm;31671;48.092;11.842;2023-07-13T03:56:39;30.98;28.72;40.64;;
45964;Laerm;31671;48.092;11.842;2023-07-13T03:59:07;29.95;28.41;36.47;;
45964;Laerm;31671;48.092;11.842;2023-07-13T04:01:33;29.63;28.01;51.91;;
45964;Laerm;31671;48.092;11.842;2023-07-13T04:03:58;29.19;27.59;32.15;;
45964;Laerm;31671;48.092;11.842;2023-07-13T04:06:28;29.26;27.79;46.88;;
45964;Laerm;31671;48.092;11.842;2023-07-13T04:08:55;29.15;27.80;32.06;;
45964;Laerm;31671;48.092;11.842;2023-07-13T04:11:22;29.33;27.85;36.28;;
45964;Laerm;31671;48.092;11.842;2023-07-13T04:13:48;29.38;27.92;43.34;;
45964;Laerm;31671;48.092;11.842;2023-07-13T04:16:14;29.42;27.78;33.53;;
45964;Laerm;31671;48.092;11.842;2023-07-13T04:18:40;29.39;27.85;37.39;;
45964;Laerm;31671;48.092;11.842;2023-07-13T04:21:05;29.38;27.60;32.12;;
45964;Laerm;31671;48.092;11.842;2023-07-13T04:23:31;29.52;27.91;33.34;;
45964;Laerm;31671;48.092;11.842;2023-07-13T04:25:57;29.42;28.05;32.06;;
45964;Laerm;31671;48.092;11.842;2023-07-13T04:28:23;29.33;28.05;32.02;;
45964;Laerm;31671;48.092;11.842;2023-07-13T04:30:49;29.49;28.12;34.39;;
45964;Laerm;31671;48.092;11.842;2023-07-13T04:33:14;29.78;28.04;34.46;;
45964;Laerm;31671;48.092;11.842;2023-07-13T04:35:40;29.73;28.11;35.25;;
45964;Laerm;31671;48.092;11.842;2023-07-13T04:38:06;29.67;28.37;33.78;;
45964;Laerm;31671;48.092;11.842;2023-07-13T04:40:31;30.10;28.50;43.89;;
45964;Laerm;31671;48.092;11.842;2023-07-13T04:42:57;29.87;28.34;33.90;;
45964;Laerm;31671;48.092;11.842;2023-07-13T04:45:23;29.58;28.08;46.45;;
45964;Laerm;31671;48.092;11.842;2023-07-13T04:47:49;29.52;28.08;32.90;;
45964;Laerm;31671;48.092;11.842;2023-07-13T04:50:15;29.47;27.94;37.58;;
45964;Laerm;31671;48.092;11.842;2023-07-13T04:52:41;29.46;28.05;34.13;;
45964;Laerm;31671;48.092;11.842;2023-07-13T04:55:07;29.49;28.13;33.55;;
45964;Laerm;31671;48.092;11.842;2023-07-13T04:57:33;29.42;28.03;32.59;;
45964;Laerm;31671;48.092;11.842;2023-07-13T04:59:58;29.47;27.57;35.80;;
45964;Laerm;31671;48.092;11.842;2023-07-13T05:02:24;29.52;27.99;39.06;;
45964;Laerm;31671;48.092;11.842;2023-07-13T05:04:50;29.38;27.84;31.79;;
45964;Laerm;31671;48.092;11.842;2023-07-13T05:07:15;29.40;27.94;32.16;;
45964;Laerm;31671;48.092;11.842;2023-07-13T05:09:44;29.38;27.86;37.33;;
45964;Laerm;31671;48.092;11.842;2023-07-13T05:12:10;29.38;27.96;33.71;;
45964;Laerm;31671;48.092;11.842;2023-07-13T05:14:35;29.31;27.84;35.45;;
45964;Laerm;31671;48.092;11.842;2023-07-13T05:17:01;29.45;27.66;41.95;;
45964;Laerm;31671;48.092;11.842;2023-07-13T05:19:27;29.40;27.86;35.19;;
45964;Laerm;31671;48.092;11.842;2023-07-13T05:21:52;29.40;28.03;33.15;;
45964;Laerm;31671;48.092;11.842;2023-07-13T05:24:18;29.35;27.81;33.62;;
45964;Laerm;31671;48.092;11.842;2023-07-13T05:26:44;29.61;27.86;40.36;;
45964;Laerm;31671;48.092;11.842;2023-07-13T05:29:09;29.88;27.82;40.50;;
45964;Laerm;31671;48.092;11.842;2023-07-13T05:31:35;29.55;27.99;36.09;;
45964;Laerm;31671;48.092;11.842;2023-07-13T05:34:01;33.68;27.81;58.16;;
45964;Laerm;31671;48.092;11.842;2023-07-13T05:36:27;32.32;27.83;64.83;;
45964;Laerm;31671;48.092;11.842;2023-07-13T05:38:52;32.79;27.82;65.84;;
45964;Laerm;31671;48.092;11.842;2023-07-13T05:41:18;29.39;27.89;39.96;;
45964;Laerm;31671;48.092;11.842;2023-07-13T05:43:43;29.68;27.92;33.52;;
45964;Laerm;31671;48.092;11.842;2023-07-13T05:46:09;29.57;27.90;34.43;;
45964;Laerm;31671;48.092;11.842;2023-07-13T05:48:35;29.40;27.94;32.80;;
45964;Laerm;31671;48.092;11.842;2023-07-13T05:51:01;29.26;27.61;32.41;;
45964;Laerm;31671;48.092;11.842;2023-07-13T05:53:27;29.54;27.90;39.04;;
45964;Laerm;31671;48.092;11.842;2023-07-13T05:55:53;29.82;28.02;35.29;;
45964;Laerm;31671;48.092;11.842;2023-07-13T05:58:19;29.39;27.71;32.34;;
45964;Laerm;31671;48.092;11.842;2023-07-13T06:00:45;29.19;27.72;34.75;;
45964;Laerm;31671;48.092;11.842;2023-07-13T06:03:11;29.55;27.86;37.65;;
45964;Laerm;31671;48.092;11.842;2023-07-13T06:05:37;29.52;27.90;33.17;;
45964;Laerm;31671;48.092;11.842;2023-07-13T06:08:03;29.30;27.69;32.53;;
45964;Laerm;31671;48.092;11.842;2023-07-13T06:10:32;29.70;27.76;35.59;;
45964;Laerm;31671;48.092;11.842;2023-07-13T06:12:58;29.13;27.45;33.01;;
45964;Laerm;31671;48.092;11.842;2023-07-13T06:15:23;29.28;27.69;31.44;;
45964;Laerm;31671;48.092;11.842;2023-07-13T06:17:49;29.29;27.70;39.53;;
45964;Laerm;31671;48.092;11.842;2023-07-13T06:20:15;29.85;27.94;37.82;;
45964;Laerm;31671;48.092;11.842;2023-07-13T06:22:40;29.40;27.99;38.02;;
45964;Laerm;31671;48.092;11.842;2023-07-13T06:25:06;29.37;27.89;34.59;;
45964;Laerm;31671;48.092;11.842;2023-07-13T06:27:32;29.66;27.65;34.79;;
45964;Laerm;31671;48.092;11.842;2023-07-13T06:29:58;29.80;28.07;35.28;;
45964;Laerm;31671;48.092;11.842;2023-07-13T06:32:23;29.58;27.95;34.98;;
45964;Laerm;31671;48.092;11.842;2023-07-13T06:34:49;29.77;27.77;38.99;;
45964;Laerm;31671;48.092;11.842;2023-07-13T06:37:15;29.45;27.57;35.74;;
45964;Laerm;31671;48.092;11.842;2023-07-13T06:39:40;29.50;27.96;37.30;;
45964;Laerm;31671;48.092;11.842;2023-07-13T06:42:06;29.40;28.03;31.96;;
45964;Laerm;31671;48.092;11.842;2023-07-13T06:44:32;29.35;27.83;31.13;;
45964;Laerm;31671;48.092;11.842;2023-07-13T06:46:57;29.42;27.79;35.42;;
45964;Laerm;31671;48.092;11.842;2023-07-13T06:49:23;29.46;27.83;35.59;;
45964;Laerm;31671;48.092;11.842;2023-07-13T06:51:49;29.52;27.87;33.82;;
45964;Laerm;31671;48.092;11.842;2023-07-13T06:54:14;29.28;27.69;33.76;;
45964;Laerm;31671;48.092;11.842;2023-07-13T06:56:40;29.26;27.68;34.14;;
45964;Laerm;31671;48.092;11.842;2023-07-13T06:59:06;29.47;27.64;35.30;;
45964;Laerm;31671;48.092;11.842;2023-07-13T07:01:31;29.66;27.75;47.54;;
45964;Laerm;31671;48.092;11.842;2023-07-13T07:03:57;29.81;27.55;42.37;;
45964;Laerm;31671;48.092;11.842;2023-07-13T07:06:23;29.27;27.85;40.62;;
45964;Laerm;31671;48.092;11.842;2023-07-13T07:08:49;29.29;27.59;39.32;;
45964;Laerm;31671;48.092;11.842;2023-07-13T07:11:16;29.15;27.61;31.28;;
45964;Laerm;31671;48.092;11.842;2023-07-13T07:13:43;29.70;27.88;42.97;;
45964;Laerm;31671;48.092;11.842;2023-07-13T07:16:08;29.43;27.71;39.31;;
45964;Laerm;31671;48.092;11.842;2023-07-13T07:18:34;29.36;27.89;36.48;;
45964;Laerm;31671;48.092;11.842;2023-07-13T07:21:00;29.21;27.66;31.19;;
45964;Laerm;31671;48.092;11.842;2023-07-13T07:23:26;29.25;28.01;32.26;;
45964;Laerm;31671;48.092;11.842;2023-07-13T07:25:52;29.39;27.86;31.39;;
45964;Laerm;31671;48.092;11.842;2023-07-13T07:28:18;29.86;27.78;35.78;;
45964;Laerm;31671;48.092;11.842;2023-07-13T07:30:46;29.74;27.97;33.96;;
45964;Laerm;31671;48.092;11.842;2023-07-13T07:33:12;29.31;27.77;33.05;;
45964;Laerm;31671;48.092;11.842;2023-07-13T07:35:38;29.40;27.82;41.68;;
45964;Laerm;31671;48.092;11.842;2023-07-13T07:38:03;29.33;27.91;34.52;;
45964;Laerm;31671;48.092;11.842;2023-07-13T07:40:29;29.41;27.65;32.89;;
45964;Laerm;31671;48.092;11.842;2023-07-13T07:42:55;29.31;27.73;33.04;;
45964;Laerm;31671;48.092;11.842;2023-07-13T07:45:21;29.22;27.72;31.76;;
45964;Laerm;31671;48.092;11.842;2023-07-13T07:47:46;29.10;27.84;33.98;;
45964;Laerm;31671;48.092;11.842;2023-07-13T07:50:12;29.33;27.85;33.79;;
45964;Laerm;31671;48.092;11.842;2023-07-13T07:52:38;29.26;27.86;35.26;;
45964;Laerm;31671;48.092;11.842;2023-07-13T07:55:04;29.26;27.92;34.35;;
45964;Laerm;31671;48.092;11.842;2023-07-13T07:57:30;29.46;27.59;35.17;;
45964;Laerm;31671;48.092;11.842;2023-07-13T07:59:56;29.27;27.70;38.17;;
45964;Laerm;31671;48.092;11.842;2023-07-13T08:02:21;29.16;27.78;32.20;;
45964;Laerm;31671;48.092;11.842;2023-07-13T08:04:47;29.27;27.70;32.76;;
45964;Laerm;31671;48.092;11.842;2023-07-13T08:07:13;29.15;27.85;32.40;;
45964;Laerm;31671;48.092;11.842;2023-07-13T08:09:38;29.17;27.80;32.03;;
45964;Laerm;31671;48.092;11.842;2023-07-13T08:12:04;29.17;27.71;32.39;;
45964;Laerm;31671;48.092;11.842;2023-07-13T08:14:30;29.17;27.63;31.12;;
45964;Laerm;31671;48.092;11.842;2023-07-13T08:16:56;29.22;27.71;31.27;;
45964;Laerm;31671;48.092;11.842;2023-07-13T08:19:21;29.88;27.76;39.74;;
45964;Laerm;31671;48.092;11.842;2023-07-13T08:21:47;29.93;27.68;38.39;;
45964;Laerm;31671;48.092;11.842;2023-07-13T08:24:13;29.25;27.78;31.55;;
45964;Laerm;31671;48.092;11.842;2023-07-13T08:26:38;29.20;27.65;32.04;;
45964;Laerm;31671;48.092;11.842;2023-07-13T08:29:04;29.10;27.41;31.28;;
45964;Laerm;31671;48.092;11.842;2023-07-13T08:31:30;29.20;27.45;37.59;;
45964;Laerm;31671;48.092;11.842;2023-07-13T08:33:56;29.47;27.80;43.02;;
45964;Laerm;31671;48.092;11.842;2023-07-13T08:36:21;29.21;27.97;34.77;;
45964;Laerm;31671;48.092;11.842;2023-07-13T08:38:47;29.16;27.93;32.83;;
45964;Laerm;31671;48.092;11.842;2023-07-13T08:41:17;29.18;27.48;34.71;;
45964;Laerm;31671;48.092;11.842;2023-07-13T08:43:45;29.24;27.82;36.59;;
45964;Laerm;31671;48.092;11.842;2023-07-13T08:46:13;29.94;27.97;35.13;;
45964;Laerm;31671;48.092;11.842;2023-07-13T08:51:12;29.33;27.64;36.19;;
45964;Laerm;31671;48.092;11.842;2023-07-13T08:53:42;29.26;27.63;31.27;;
45964;Laerm;31671;48.092;11.842;2023-07-13T08:56:16;29.42;27.59;37.86;;
45964;Laerm;31671;48.092;11.842;2023-07-13T08:58:42;29.50;27.81;37.87;;
45964;Laerm;31671;48.092;11.842;2023-07-13T09:01:16;30.46;28.11;42.73;;
45964;Laerm;31671;48.092;11.842;2023-07-13T09:06:21;29.51;27.49;37.64;;
45964;Laerm;31671;48.092;11.842;2023-07-13T09:08:56;29.91;27.60;52.21;;
45964;Laerm;31671;48.092;11.842;2023-07-13T09:16:36;30.91;27.86;43.62;;
45964;Laerm;31671;48.092;11.842;2023-07-13T09:19:04;30.13;28.30;34.92;;
45964;Laerm;31671;48.092;11.842;2023-07-13T09:21:31;29.37;27.69;32.26;;
45964;Laerm;31671;48.092;11.842;2023-07-13T09:24:00;29.52;27.81;39.09;;
45964;Laerm;31671;48.092;11.842;2023-07-13T09:26:27;29.60;27.74;35.89;;
45964;Laerm;31671;48.092;11.842;2023-07-13T09:28:55;29.65;27.88;35.69;;
45964;Laerm;31671;48.092;11.842;2023-07-13T09:31:36;29.39;27.67;32.82;;
45964;Laerm;31671;48.092;11.842;2023-07-13T09:34:07;29.29;27.75;32.77;;
45964;Laerm;31671;48.092;11.842;2023-07-13T09:36:34;29.13;27.73;34.30;;
45964;Laerm;31671;48.092;11.842;2023-07-13T09:39:04;29.35;27.81;35.02;;
45964;Laerm;31671;48.092;11.842;2023-07-13T09:41:43;30.00;27.80;38.95;;
45964;Laerm;31671;48.092;11.842;2023-07-13T09:44:15;29.35;27.79;35.17;;
45964;Laerm;31671;48.092;11.842;2023-07-13T09:46:44;29.10;27.84;32.66;;
45964;Laerm;31671;48.092;11.842;2023-07-13T09:49:11;29.21;27.79;33.34;;
45964;Laerm;31671;48.092;11.842;2023-07-13T09:51:39;29.36;27.63;32.18;;
45964;Laerm;31671;48.092;11.842;2023-07-13T09:54:05;29.31;27.81;31.77;;
45964;Laerm;31671;48.092;11.842;2023-07-13T09:56:31;29.39;27.63;34.81;;
45964;Laerm;31671;48.092;11.842;2023-07-13T09:58:57;29.37;27.63;34.14;;
45964;Laerm;31671;48.092;11.842;2023-07-13T10:01:36;29.12;27.92;31.03;;
45964;Laerm;31671;48.092;11.842;2023-07-13T10:04:03;29.23;27.60;36.98;;
45964;Laerm;31671;48.092;11.842;2023-07-13T10:06:35;29.25;27.65;34.82;;
45964;Laerm;31671;48.092;11.842;2023-07-13T10:09:01;29.12;27.80;32.52;;
45964;Laerm;31671;48.092;11.842;2023-07-13T10:11:27;29.14;27.86;39.65;;
45964;Laerm;31671;48.092;11.842;2023-07-13T10:13:55;29.95;27.74;42.15;;
45964;Laerm;31671;48.092;11.842;2023-07-13T10:16:20;29.33;27.69;42.36;;
45964;Laerm;31671;48.092;11.842;2023-07-13T10:18:48;29.48;27.80;34.08;;
45964;Laerm;31671;48.092;11.842;2023-07-13T10:21:16;29.14;27.59;31.17;;
45964;Laerm;31671;48.092;11.842;2023-07-13T10:23:42;29.07;27.80;31.15;;
45964;Laerm;31671;48.092;11.842;2023-07-13T10:26:13;29.23;27.79;35.83;;
45964;Laerm;31671;48.092;11.842;2023-07-13T10:28:42;29.20;27.85;31.61;;
45964;Laerm;31671;48.092;11.842;2023-07-13T10:31:11;29.13;27.73;39.18;;
45964;Laerm;31671;48.092;11.842;2023-07-13T10:33:37;29.38;27.77;38.11;;
45964;Laerm;31671;48.092;11.842;2023-07-13T10:36:12;29.37;27.85;46.75;;
45964;Laerm;31671;48.092;11.842;2023-07-13T10:38:38;29.28;27.92;38.03;;
45964;Laerm;31671;48.092;11.842;2023-07-13T10:41:06;29.59;28.08;39.43;;
45964;Laerm;31671;48.092;11.842;2023-07-13T10:43:35;29.73;28.25;40.29;;
45964;Laerm;31671;48.092;11.842;2023-07-13T10:46:02;29.85;28.42;39.92;;
45964;Laerm;31671;48.092;11.842;2023-07-13T10:48:29;29.93;28.45;39.61;;
45964;Laerm;31671;48.092;11.842;2023-07-13T10:50:55;30.33;28.74;39.57;;
45964;Laerm;31671;48.092;11.842;2023-07-13T10:58:23;30.32;28.89;39.31;;
45964;Laerm;31671;48.092;11.842;2023-07-13T11:00:51;30.28;28.82;38.51;;
45964;Laerm;31671;48.092;11.842;2023-07-13T11:03:19;30.56;29.06;43.31;;
45964;Laerm;31671;48.092;11.842;2023-07-13T11:05:47;30.48;28.98;33.85;;
45964;Laerm;31671;48.092;11.842;2023-07-13T11:08:16;30.54;29.04;34.01;;
45964;Laerm;31671;48.092;11.842;2023-07-13T11:10:47;30.31;28.78;39.38;;
45964;Laerm;31671;48.092;11.842;2023-07-13T11:15:58;30.94;29.03;37.45;;
45964;Laerm;31671;48.092;11.842;2023-07-13T11:18:24;30.32;28.86;33.98;;
45964;Laerm;31671;48.092;11.842;2023-07-13T11:20:50;30.77;28.99;39.68;;
45964;Laerm;31671;48.092;11.842;2023-07-13T11:25:41;30.19;28.51;39.49;;
45964;Laerm;31671;48.092;11.842;2023-07-13T11:30:37;30.15;28.69;37.81;;
45964;Laerm;31671;48.092;11.842;2023-07-13T11:35:29;30.95;28.92;52.52;;
45964;Laerm;31671;48.092;11.842;2023-07-13T11:37:56;30.38;28.82;33.75;;
45964;Laerm;31671;48.092;11.842;2023-07-13T11:40:22;30.77;28.81;37.94;;
45964;Laerm;31671;48.092;11.842;2023-07-13T11:42:50;30.10;28.63;39.00;;
45964;Laerm;31671;48.092;11.842;2023-07-13T11:45:22;29.98;28.36;40.30;;
45964;Laerm;31671;48.092;11.842;2023-07-13T11:47:48;29.80;27.83;42.48;;
45964;Laerm;31671;48.092;11.842;2023-07-13T11:50:21;32.58;28.10;58.24;;
45964;Laerm;31671;48.092;11.842;2023-07-13T11:52:48;29.82;28.45;32.51;;
45964;Laerm;31671;48.092;11.842;2023-07-13T11:55:16;36.18;28.36;61.06;;
45964;Laerm;31671;48.092;11.842;2023-07-13T11:57:52;35.43;28.16;58.21;;
45964;Laerm;31671;48.092;11.842;2023-07-13T12:00:25;29.97;28.31;44.11;;
45964;Laerm;31671;48.092;11.842;2023-07-13T12:02:52;29.64;28.12;37.89;;
45964;Laerm;31671;48.092;11.842;2023-07-13T12:05:19;32.56;27.99;57.03;;
45964;Laerm;31671;48.092;11.842;2023-07-13T12:07:45;35.82;28.12;54.40;;
45964;Laerm;31671;48.092;11.842;2023-07-13T12:10:27;35.06;27.91;54.36;;
45964;Laerm;31671;48.092;11.842;2023-07-13T12:13:00;29.53;28.09;34.63;;
45964;Laerm;31671;48.092;11.842;2023-07-13T12:15:28;30.78;28.30;46.97;;
45964;Laerm;31671;48.092;11.842;2023-07-13T12:17:56;29.46;28.14;31.17;;
45964;Laerm;31671;48.092;11.842;2023-07-13T12:20:26;29.50;27.70;38.11;;
45964;Laerm;31671;48.092;11.842;2023-07-13T12:22:52;29.40;27.82;36.11;;
45964;Laerm;31671;48.092;11.842;2023-07-13T12:25:18;29.64;28.02;35.75;;
45964;Laerm;31671;48.092;11.842;2023-07-13T12:27:48;29.72;28.25;34.44;;
45964;Laerm;31671;48.092;11.842;2023-07-13T12:32:43;29.72;28.27;36.21;;
45964;Laerm;31671;48.092;11.842;2023-07-13T12:35:19;29.82;28.55;31.33;;
45964;Laerm;31671;48.092;11.842;2023-07-13T12:37:45;29.83;28.40;31.66;;
45964;Laerm;31671;48.092;11.842;2023-07-13T12:40:21;29.89;28.40;35.79;;
45964;Laerm;31671;48.092;11.842;2023-07-13T12:42:51;32.53;28.48;57.59;;
45964;Laerm;31671;48.092;11.842;2023-07-13T12:45:18;30.06;28.18;40.84;;
45964;Laerm;31671;48.092;11.842;2023-07-13T12:47:48;29.76;28.09;41.88;;
45964;Laerm;31671;48.092;11.842;2023-07-13T12:50:15;29.98;28.17;39.22;;
45964;Laerm;31671;48.092;11.842;2023-07-13T12:52:42;29.49;27.98;31.33;;
45964;Laerm;31671;48.092;11.842;2023-07-13T12:55:11;29.59;28.16;35.72;;
45964;Laerm;31671;48.092;11.842;2023-07-13T12:57:38;29.63;28.20;34.43;;
45964;Laerm;31671;48.092;11.842;2023-07-13T13:00:06;30.03;28.43;36.83;;
45964;Laerm;31671;48.092;11.842;2023-07-13T13:02:45;30.71;28.28;50.82;;
45964;Laerm;31671;48.092;11.842;2023-07-13T13:05:12;29.78;28.57;35.00;;
45964;Laerm;31671;48.092;11.842;2023-07-13T13:07:38;29.77;28.37;38.71;;
45964;Laerm;31671;48.092;11.842;2023-07-13T13:10:11;29.52;28.09;40.40;;
45964;Laerm;31671;48.092;11.842;2023-07-13T13:12:36;29.45;27.85;34.98;;
45964;Laerm;31671;48.092;11.842;2023-07-13T13:15:02;29.52;28.23;36.09;;
45964;Laerm;31671;48.092;11.842;2023-07-13T13:17:29;29.60;28.00;39.00;;
45964;Laerm;31671;48.092;11.842;2023-07-13T13:19:55;29.54;27.88;38.58;;
45964;Laerm;31671;48.092;11.842;2023-07-13T13:22:21;29.83;27.90;45.53;;
45964;Laerm;31671;48.092;11.842;2023-07-13T13:24:47;29.14;27.79;39.25;;
45964;Laerm;31671;48.092;11.842;2023-07-13T13:27:16;29.55;27.67;35.72;;
45964;Laerm;31671;48.092;11.842;2023-07-13T13:29:42;29.40;27.78;38.75;;
45964;Laerm;31671;48.092;11.842;2023-07-13T13:32:09;29.19;27.78;36.21;;
45964;Laerm;31671;48.092;11.842;2023-07-13T13:34:37;29.18;27.84;34.71;;
45964;Laerm;31671;48.092;11.842;2023-07-13T13:37:02;29.15;27.73;39.69;;
45964;Laerm;31671;48.092;11.842;2023-07-13T13:39:35;29.13;27.72;39.87;;
45964;Laerm;31671;48.092;11.842;2023-07-13T13:42:01;29.57;27.51;38.23;;
45964;Laerm;31671;48.092;11.842;2023-07-13T13:44:27;29.36;27.61;34.68;;
45964;Laerm;31671;48.092;11.842;2023-07-13T13:46:53;29.70;27.98;40.79;;
45964;Laerm;31671;48.092;11.842;2023-07-13T13:49:21;29.11;27.68;39.79;;
45964;Laerm;31671;48.092;11.842;2023-07-13T13:51:47;29.22;27.54;39.89;;
45964;Laerm;31671;48.092;11.842;2023-07-13T13:54:13;29.06;27.70;35.27;;
45964;Laerm;31671;48.092;11.842;2023-07-13T13:56:43;29.22;27.94;37.67;;
45964;Laerm;31671;48.092;11.842;2023-07-13T13:59:09;30.20;27.86;55.65;;
45964;Laerm;31671;48.092;11.842;2023-07-13T14:01:35;29.50;28.06;39.17;;
45964;Laerm;31671;48.092;11.842;2023-07-13T14:04:01;29.56;28.19;35.03;;